NCAR-RAP Real-Time Weather Data

Output produced by METARs form (19 June 2019  10:39 UTC)
found at http://weather.rap.ucar.edu/surface/
 
KABE 191022Z 04003KT 2 1/2SM -RA BR OVC003 19/18 A2987 RMK AO2 RAB0952 P0000 T01940178
KABE 191001Z 08003KT 1 1/2SM -RA BR OVC002 19/18 A2987 RMK AO2 RAB0952 P0000 T01940178
KABE 190951Z 07003KT 2 1/2SM BR OVC002 19/18 A2987 RMK AO2 RAB16E46 SLP112 P0001 T01890178
KABE 190947Z 06003KT 2SM BR OVC002 19/18 A2987 RMK AO2 RAB16E46 P0001
KABE 190925Z AUTO 02003KT 3/4SM -RA BR VV002 19/18 A2987 RMK AO2 RAB16 P0000 T01890178
KABE 190916Z AUTO 04004KT 1SM -RA BR VV002 19/18 A2987 RMK AO2 RAB16 P0000 T01890178
KABE 190851Z AUTO 04003KT 3/4SM BR VV002 19/18 A2987 RMK AO2 SLP111 T01890178 55009
KABE 190843Z AUTO 01003KT 1/2SM FG VV002 19/18 A2987 RMK AO2 T01890178
KABE 190809Z AUTO 02003KT 1 3/4SM BR OVC003 19/18 A2987 RMK AO2 T01890178
KABE 190751Z 00000KT 8SM OVC003 19/17 A2986 RMK AO2 SLP111 T01890172
KABE 190729Z 00000KT 8SM BKN004 BKN030 OVC085 19/18 A2988 RMK AO2 T01890178
KABE 190720Z 00000KT 8SM SCT003 BKN030 OVC085 19/17 A2988 RMK AO2 T01890172
KABE 190651Z 00000KT 10SM FEW085 19/18 A2988 RMK AO2 SLP115 T01890178
KABE 190551Z 36003KT 9SM SCT120 19/17 A2989 RMK AO2 SLP120 T01890172 10211 20189 58002
KABE 190451Z 00000KT 3SM BR CLR 19/18 A2990 RMK AO2 SLP121 T01940178 402720189
KABE 190351Z 00000KT 7SM CLR 19/18 A2990 RMK AO2 SLP123 T01890178
KABE 190251Z 00000KT 10SM CLR 19/18 A2990 RMK AO2 SLP123 T01940178 51005
KABE 190151Z 00000KT 10SM FEW030 FEW037 20/18 A2990 RMK AO2 SLP122 T02000183
KABE 190125Z 00000KT 10SM SCT013 OVC031 21/18 A2989 RMK AO2 T02060183
KABE 190051Z 00000KT 10SM OVC011 21/18 A2989 RMK AO2 SLP119 T02110183
KABE 190028Z 35003KT 10SM OVC010 21/18 A2989 RMK AO2 T02110183
KABE 190010Z 36004KT 10SM OVC009 21/18 A2989 RMK AO2 T02110183
KABE 182351Z 36005KT 10SM OVC010 21/18 A2989 RMK AO2 SLP117 60068 T02110183 10272 20206 53014
KABE 182300Z 03006KT 10SM OVC011 22/19 A2987 RMK AO2 T02170189
KABE 182251Z AUTO 02005KT 10SM OVC009 22/19 A2987 RMK AO2 SLP111 T02170189
KABE 182217Z AUTO 01005KT 10SM BKN009 BKN029 22/19 A2986 RMK AO2 T02170189
KABE 182202Z AUTO 04005KT 10SM FEW007 FEW018 22/19 A2986 RMK AO2 T02170189
KABE 182151Z AUTO 05006KT 10SM FEW007 BKN016 BKN065 22/19 A2986 RMK AO2 RAE30 TSB29E44 SLP108 P0047 T02170189
KABE 182144Z 06007KT 10SM SCT007 BKN013 OVC065 22/19 A2986 RMK AO2 RAE30 TSB29E44 P0047 T02170189
KABE 182135Z 03006KT 10SM TS FEW007 SCT013 OVC017 21/19 A2987 RMK AO2 RAE30 TSB29 P0047 T02110189
KABE 182123Z 04004KT 3SM -RA BR FEW009 OVC015 21/19 A2987 RMK AO2 P0047 T02110189
KABE 182119Z 04005KT 1 1/4SM +RA BR FEW007 OVC013 21/19 A2986 RMK AO2 P0047 T02060189
KABE 182111Z 00000KT 3/4SM +RA BR FEW007 BKN021 OVC035 21/19 A2986 RMK AO2 P0035 T02060189
KABE 182103Z 00000KT 3/4SM +RA BR FEW008 BKN013 OVC029 21/19 A2985 RMK AO2 VIS 1/2V2 1/2 P0013 T02060189
KABE 182051Z 04009KT 1 1/4SM +RA BR FEW008 BKN019 OVC041 21/19 A2984 RMK AO2 RAE26B33 SLP104 P0021 60021 T02060189 56009
KABE 182041Z 03011KT 1 3/4SM +RA BR BKN019 BKN026 OVC035 21/19 A2986 RMK AO2 RAE26B33 P0007 T02110189
KABE 182032Z 06008KT 10SM BKN019 BKN030 OVC042 22/19 A2985 RMK AO2 RAE26 P0000 T02170189
KABE 181959Z 03011KT 9SM -RA FEW009 FEW022 OVC035 22/19 A2985 RMK AO2 LTG DSNT SE P0000 T02170194
KABE 181951Z 05009KT 10SM -RA FEW010 SCT023 OVC038 23/20 A2985 RMK AO2 LTG DSNT SE RAB04E17B37 SLP105 P0000 T02280200
KABE 181927Z 01011KT 10SM BKN025 BKN033 OVC070 26/21 A2984 RMK AO2 RAB04E17 P0000 T02560206
KABE 181851Z 21003KT 10SM SCT025 SCT030 BKN060 27/21 A2985 RMK AO2 SLP104 T02670206
KABE 181751Z 00000KT 10SM BKN019 OVC026 26/21 A2987 RMK AO2 LTG DSNT SE SLP112 60103 T02610206 10267 20211 58019
KABE 181734Z 04003KT 10SM BKN019 BKN025 OVC039 26/21 A2988 RMK AO2 LTG DSNT SE T02560206
KABE 181651Z VRB04KT 10SM SCT050 BKN060 24/20 A2990 RMK AO2 LTG DSNT E AND SE RAE1555 SLP122 P0000 T02440200
KABE 181641Z 20003KT 10SM BKN055 24/21 A2991 RMK AO2 LTG DSNT SE RAE1555 P0000 T02440206
KABE 181626Z VRB03KT 10SM VCTS FEW047 SCT060 24/19 A2990 RMK AO2 LTG DSNT SE RAE1555 P0000 T02390194
KABE 181600Z 30003KT 10SM FEW009 BKN050 OVC090 23/21 A2991 RMK AO2 LTG DSNT E RAE1555 P0000 T02280206
KABE 181551Z 26004KT 1/2SM -RA FG FEW010 BKN065 OVC090 22/20 A2991 RMK AO2 SLP126 P0054 T02220200
KABE 181544Z 21004KT 1/2SM RA FG SCT010 BKN032 OVC090 22/19 A2991 RMK AO2 P0054 T02170194
KABE 181515Z 00000KT 1/2SM -RA FG FEW007 BKN017 OVC042 22/21 A2992 RMK AO2 P0033 T02220206
KABE 181504Z 09003KT 1/2SM -RA FG BKN018 BKN023 OVC065 22/20 A2992 RMK AO2 P0033 T02220200
KABE 181451Z 00000KT 1/2SM +RA FG BKN013 BKN031 OVC065 22/21 A2993 RMK AO2 RAB1352E07B11 TSB14E40 SLP131 P0046 60049 T02220206 56007
KABE 181448Z 32005KT 1/2SM -RA BR SCT013 BKN031 OVC065 22/21 A2993 RMK AO2 SFC VIS 1 1/4 RAB1352E07B11 TSB14E40 P0032
KABE 181444Z VRB04KT 6SM -RA BR SCT011 BKN031 OVC065 22/21 A2993 RMK AO2 RAB1352E07B11 TSB14E40 P0031 T02220206
KABE 181440Z 07004KT 5SM -RA BR BKN011 BKN027 OVC038 22/21 A2992 RMK AO2 RAB1352E07B11 TSB14E40 P0031 T02220206
KABE 181436Z 00000KT 2SM -TSRA BR FEW009 BKN013 OVC042 22/21 A2993 RMK AO2 RAB1352E07B11 TSB14 P0031 T02220206
KABE 181432Z 12004KT 1SM +TSRA BR BKN013 BKN036 OVC042 22/21 A2993 RMK AO2 RAB1352E07B11 TSB14 P0030 T02220206
KABE 181428Z 09004KT 1/2SM +TSRA FG VV011 22/20 A2993 RMK AO2 LTG DSNT W RAB1352E07B11 TSB14 P0025 T02220200
KABE 181418Z 00000KT 1 1/2SM +TSRA BR BKN009 OVC040 23/21 A2994 RMK AO2 LTG DSNT W RAB1352E07B11 TSB14 P0001 T02280206
KABE 181408Z 12004KT 5SM VCTS HZ BKN009 OVC040 23/20 A2992 RMK AO2 LTG DSNT W RAB1352E07 CIG 007V012 P0000 T02280200
KABE 181358Z 14004KT 5SM -RA BKN009 OVC042 23/20 A2993 RMK AO2 LTG DSNT W RAB52 P0000 T02280200
KABE 181351Z 12003KT 5SM HZ SCT009 OVC041 23/20 A2993 RMK AO2 RAE47 SLP133 P0003 T02280200
KABE 181326Z 14004KT 4SM RA FEW007 BKN046 OVC090 23/20 A2994 RMK AO2 P0002 T02280200
KABE 181251Z 15004KT 4SM -RA BR BKN038 BKN065 OVC095 22/20 A2994 RMK AO2 RAB44 SLP136 P0000 T02220200